createdAt,value
2022-12-03T00:00:35.880Z,9.02
2022-12-03T00:03:02.655Z,8.98
2022-12-03T00:05:29.264Z,9.38
2022-12-03T00:07:55.804Z,9.02
2022-12-03T00:10:22.541Z,8.60
2022-12-03T00:12:49.074Z,8.48
2022-12-03T00:15:15.749Z,8.98
2022-12-03T00:17:42.376Z,9.60
2022-12-03T00:20:11.401Z,8.90
2022-12-03T00:22:37.966Z,9.57
2022-12-03T00:25:04.893Z,9.75
2022-12-03T00:27:31.530Z,9.10
2022-12-03T00:29:58.092Z,8.30
2022-12-03T00:32:24.695Z,8.70
2022-12-03T00:34:51.496Z,8.38
2022-12-03T00:37:18.452Z,8.63
2022-12-03T00:39:44.963Z,8.85
2022-12-03T00:42:11.435Z,8.85
2022-12-03T00:44:38.038Z,8.50
2022-12-03T00:47:04.765Z,8.02
2022-12-03T00:49:31.964Z,9.40
2022-12-03T00:51:58.500Z,9.13
2022-12-03T00:54:31.430Z,9.10
2022-12-03T00:56:58.553Z,9.35
2022-12-03T00:59:25.217Z,9.48
2022-12-03T01:01:51.899Z,9.00
2022-12-03T01:04:18.651Z,9.10
2022-12-03T01:06:45.207Z,8.90
2022-12-03T01:09:11.754Z,8.82
2022-12-03T01:11:38.326Z,9.32
2022-12-03T01:14:06.977Z,9.02
2022-12-03T01:19:00.421Z,8.45
2022-12-03T01:21:27.023Z,9.30
2022-12-03T01:23:53.949Z,8.57
2022-12-03T01:26:20.621Z,8.68
2022-12-03T01:28:47.230Z,9.27
2022-12-03T01:31:32.424Z,8.77
2022-12-03T01:33:58.956Z,9.18
2022-12-03T01:36:25.520Z,9.18
2022-12-03T01:38:52.016Z,9.32
2022-12-03T01:41:20.383Z,8.88
2022-12-03T01:43:47.748Z,8.75
2022-12-03T01:46:18.503Z,9.10
2022-12-03T01:48:46.073Z,8.43
2022-12-03T01:51:14.009Z,8.90
2022-12-03T01:53:40.995Z,8.32
2022-12-03T01:56:12.595Z,8.85
2022-12-03T01:58:40.135Z,9.70
2022-12-03T02:01:13.007Z,9.10
2022-12-03T02:03:39.795Z,9.27
2022-12-03T02:06:14.170Z,9.20
2022-12-03T02:08:41.741Z,9.35
2022-12-03T02:11:25.107Z,9.20
2022-12-03T02:13:55.229Z,9.60
2022-12-03T02:16:22.083Z,9.43
2022-12-03T02:18:48.878Z,8.90
2022-12-03T02:21:46.411Z,8.95
2022-12-03T02:24:31.798Z,8.80
2022-12-03T02:26:58.289Z,9.25
2022-12-03T02:29:25.070Z,9.05
2022-12-03T02:31:51.662Z,8.32
2022-12-03T02:34:56.846Z,8.60
2022-12-03T02:37:35.731Z,9.38
2022-12-03T02:40:06.814Z,8.20
2022-12-03T02:42:36.166Z,8.88
2022-12-03T02:45:05.950Z,9.27
2022-12-03T02:47:35.651Z,9.43
2022-12-03T02:50:03.073Z,9.30
2022-12-03T02:52:29.915Z,9.60
2022-12-03T02:54:56.541Z,8.70
2022-12-03T02:57:23.193Z,9.70
2022-12-03T02:59:50.138Z,9.35
2022-12-03T03:02:17.096Z,8.60
2022-12-03T03:04:44.482Z,9.27
2022-12-03T03:07:11.411Z,9.65
2022-12-03T03:09:38.025Z,8.90
2022-12-03T03:12:04.893Z,9.77
2022-12-03T03:14:32.492Z,9.93
2022-12-03T03:16:59.449Z,9.15
2022-12-03T03:19:26.307Z,8.07
2022-12-03T03:21:56.461Z,9.23
2022-12-03T03:24:23.562Z,9.68
2022-12-03T03:26:50.719Z,9.60
2022-12-03T03:29:17.652Z,9.00
2022-12-03T03:31:46.456Z,9.88
2022-12-03T03:34:14.233Z,9.65
2022-12-03T03:36:41.070Z,9.60
2022-12-03T03:39:07.775Z,10.05
2022-12-03T03:41:35.601Z,9.95
2022-12-03T03:44:06.140Z,9.80
2022-12-03T03:46:33.610Z,10.02
2022-12-03T03:49:00.584Z,9.77
2022-12-03T03:51:27.606Z,10.02
2022-12-03T03:53:54.715Z,8.98
2022-12-03T03:56:21.943Z,9.18
2022-12-03T03:58:48.509Z,9.77
2022-12-03T04:01:15.339Z,9.50
2022-12-03T04:03:42.066Z,9.77
2022-12-03T04:06:09.269Z,9.73
2022-12-03T04:08:35.956Z,10.95
2022-12-03T04:11:21.151Z,9.90
2022-12-03T04:13:47.597Z,10.45
2022-12-03T04:16:14.216Z,9.93
2022-12-03T04:18:43.545Z,9.98
2022-12-03T04:21:34.419Z,9.15
2022-12-03T04:24:02.026Z,9.40
2022-12-03T04:26:47.892Z,10.50
2022-12-03T04:29:14.603Z,10.88
2022-12-03T04:32:00.674Z,9.85
2022-12-03T04:34:46.128Z,11.10
2022-12-03T04:37:12.654Z,10.35
2022-12-03T04:39:39.520Z,10.18
2022-12-03T04:42:06.419Z,11.35
2022-12-03T04:44:33.629Z,10.60
2022-12-03T04:47:01.171Z,10.27
2022-12-03T04:49:27.689Z,9.88
2022-12-03T04:51:54.408Z,9.85
2022-12-03T04:54:20.930Z,10.73
2022-12-03T04:56:47.563Z,10.77
2022-12-03T04:59:16.454Z,10.13
2022-12-03T05:01:44.160Z,10.70
2022-12-03T05:04:12.076Z,10.05
2022-12-03T05:06:39.126Z,10.35
2022-12-03T05:09:05.657Z,10.05
2022-12-03T05:11:32.240Z,10.65
2022-12-03T05:13:58.813Z,10.10
2022-12-03T05:16:27.862Z,10.75
2022-12-03T05:18:54.500Z,10.80
2022-12-03T05:21:21.003Z,11.65
2022-12-03T05:23:47.580Z,11.20
2022-12-03T05:26:14.113Z,10.20
2022-12-03T05:28:40.705Z,11.48
2022-12-03T05:31:07.366Z,12.02
2022-12-03T05:33:33.971Z,11.40
2022-12-03T05:36:00.564Z,11.50
2022-12-03T05:38:27.178Z,11.57
2022-12-03T05:40:53.815Z,12.40
2022-12-03T05:43:20.299Z,12.05
2022-12-03T05:45:47.056Z,12.20
2022-12-03T05:48:16.019Z,11.57
2022-12-03T05:50:45.314Z,12.82
2022-12-03T05:53:13.112Z,12.55
2022-12-03T05:55:39.703Z,12.05
2022-12-03T05:58:06.965Z,12.57
2022-12-03T06:00:42.547Z,12.38
2022-12-03T06:03:10.352Z,12.52
2022-12-03T06:05:37.142Z,13.32
2022-12-03T06:08:04.098Z,11.77
2022-12-03T06:10:30.849Z,12.93
2022-12-03T06:12:57.473Z,12.60
2022-12-03T06:15:24.237Z,11.82
2022-12-03T06:17:51.626Z,12.02
2022-12-03T06:20:20.320Z,12.43
2022-12-03T06:25:14.371Z,11.02
2022-12-03T06:27:40.929Z,10.75
2022-12-03T06:30:08.994Z,12.20
2022-12-03T06:32:36.092Z,12.43
2022-12-03T06:35:03.251Z,12.52
2022-12-03T06:37:29.832Z,10.73
2022-12-03T06:39:56.404Z,11.60
2022-12-03T06:42:22.873Z,12.43
2022-12-03T06:44:49.376Z,12.30
2022-12-03T06:47:16.017Z,11.38
2022-12-03T06:49:42.672Z,10.75
2022-12-03T06:52:09.204Z,12.13
2022-12-03T06:54:35.755Z,11.98
2022-12-03T06:57:02.297Z,11.73
2022-12-03T06:59:28.868Z,11.07
2022-12-03T07:01:55.468Z,12.23
2022-12-03T07:04:22.029Z,12.20
2022-12-03T07:06:48.597Z,11.15
2022-12-03T07:09:17.014Z,11.32
2022-12-03T07:11:43.642Z,10.85
2022-12-03T07:14:14.022Z,12.52
2022-12-03T07:16:43.234Z,11.93
2022-12-03T07:19:10.334Z,10.93
2022-12-03T07:21:36.903Z,11.50
2022-12-03T07:24:03.754Z,11.55
2022-12-03T07:26:30.279Z,12.15
2022-12-03T07:28:56.886Z,11.20
2022-12-03T07:31:23.615Z,11.55
2022-12-03T07:33:50.262Z,11.88
2022-12-03T07:36:16.745Z,12.88
2022-12-03T07:38:43.367Z,10.52
2022-12-03T07:41:09.918Z,10.68
2022-12-03T07:43:36.474Z,12.35
2022-12-03T07:46:03.011Z,12.20
2022-12-03T07:48:29.556Z,13.10
2022-12-03T07:50:56.065Z,12.57
2022-12-03T07:53:22.532Z,12.88
2022-12-03T07:55:49.059Z,11.85
2022-12-03T07:58:15.564Z,11.60
2022-12-03T08:00:42.145Z,11.43
2022-12-03T08:03:08.741Z,11.98
2022-12-03T08:05:35.188Z,12.07
2022-12-03T08:08:02.003Z,13.27
2022-12-03T08:10:28.658Z,12.32
2022-12-03T08:12:58.243Z,12.43
2022-12-03T08:15:30.187Z,11.98
2022-12-03T08:18:02.844Z,11.18
2022-12-03T08:20:34.582Z,11.48
2022-12-03T08:23:06.752Z,11.10
2022-12-03T08:25:33.328Z,11.48
2022-12-03T08:28:07.737Z,11.85
2022-12-03T08:30:34.199Z,12.02
2022-12-03T08:33:00.689Z,12.77
2022-12-03T08:35:30.702Z,12.38
2022-12-03T08:38:12.970Z,13.45
2022-12-03T08:40:41.843Z,13.52
2022-12-03T08:43:23.483Z,13.10
2022-12-03T08:45:51.723Z,11.60
2022-12-03T08:48:28.957Z,12.32
2022-12-03T08:50:58.754Z,12.82
2022-12-03T08:53:29.769Z,11.88
2022-12-03T08:56:18.050Z,11.77
2022-12-03T08:58:54.035Z,12.00
2022-12-03T09:01:34.114Z,13.05
2022-12-03T09:04:27.641Z,13.07
2022-12-03T09:06:54.843Z,11.90
2022-12-03T09:09:22.663Z,12.68
2022-12-03T09:11:50.465Z,12.10
2022-12-03T09:14:22.559Z,12.30
2022-12-03T09:16:55.835Z,13.80
2022-12-03T09:19:24.713Z,11.90
2022-12-03T09:21:51.646Z,12.63
2022-12-03T09:24:18.561Z,12.57
2022-12-03T09:26:45.158Z,13.30
2022-12-03T09:29:12.841Z,12.98
2022-12-03T09:31:40.378Z,13.10
2022-12-03T09:34:07.409Z,12.98
2022-12-03T09:36:34.118Z,12.02
2022-12-03T09:39:00.769Z,12.75
2022-12-03T09:41:27.561Z,12.43
2022-12-03T09:44:15.799Z,10.60
2022-12-03T09:46:42.311Z,10.18
2022-12-03T09:49:15.853Z,10.15
2022-12-03T09:51:44.274Z,9.05
2022-12-03T09:54:20.933Z,10.30
2022-12-03T09:56:47.458Z,10.00
2022-12-03T09:59:15.166Z,8.95
2022-12-03T10:01:42.167Z,8.95
2022-12-03T10:04:09.815Z,10.65
2022-12-03T10:06:40.948Z,9.18
2022-12-03T10:09:12.169Z,10.43
2022-12-03T10:11:38.994Z,9.23
2022-12-03T10:14:06.280Z,9.48
2022-12-03T10:16:33.840Z,10.20
2022-12-03T10:19:01.441Z,9.13
2022-12-03T10:21:39.010Z,10.32
2022-12-03T10:24:28.936Z,9.45
2022-12-03T10:27:01.677Z,10.98
2022-12-03T10:29:34.053Z,10.85
2022-12-03T10:32:05.829Z,10.43
2022-12-03T10:34:35.853Z,10.57
2022-12-03T10:37:13.506Z,11.00
2022-12-03T10:39:58.873Z,10.00
2022-12-03T10:42:30.925Z,10.20
2022-12-03T10:45:14.700Z,10.57
2022-12-03T10:47:42.503Z,11.15
2022-12-03T10:50:19.214Z,10.48
2022-12-03T10:52:46.751Z,10.40
2022-12-03T10:55:14.910Z,10.60
2022-12-03T10:57:45.549Z,9.68
2022-12-03T11:00:22.759Z,10.90
2022-12-03T11:02:56.114Z,10.20
2022-12-03T11:05:27.550Z,11.20
2022-12-03T11:07:54.578Z,10.13
2022-12-03T11:10:21.830Z,11.90
2022-12-03T11:13:26.249Z,11.60
2022-12-03T11:15:53.705Z,10.85
2022-12-03T11:18:38.591Z,9.57
2022-12-03T11:21:08.098Z,11.25
2022-12-03T11:23:46.496Z,10.07
2022-12-03T11:26:18.851Z,9.90
2022-12-03T11:28:46.156Z,10.27
2022-12-03T11:31:39.111Z,8.77
2022-12-03T11:34:21.050Z,10.60
2022-12-03T11:37:09.586Z,9.15
2022-12-03T11:39:45.497Z,8.45
2022-12-03T11:42:25.444Z,7.60
2022-12-03T11:45:04.562Z,8.02
2022-12-03T11:47:32.576Z,7.78
2022-12-03T11:49:59.190Z,7.63
2022-12-03T11:52:30.395Z,8.20
2022-12-03T11:55:04.688Z,8.10
2022-12-03T11:57:38.178Z,6.95
2022-12-03T12:00:13.464Z,7.45
2022-12-03T12:02:40.335Z,8.43
2022-12-03T12:05:25.068Z,7.85
2022-12-03T12:07:54.280Z,7.55
2022-12-03T12:10:39.158Z,8.07
2022-12-03T12:13:05.788Z,8.10
2022-12-03T12:15:38.359Z,7.82
2022-12-03T12:18:42.251Z,7.85
2022-12-03T12:21:47.798Z,8.43
2022-12-03T12:26:58.723Z,8.00
2022-12-03T12:29:25.222Z,8.10
2022-12-03T12:31:57.521Z,8.20
2022-12-03T12:34:25.454Z,8.48
2022-12-03T12:36:54.772Z,7.90
2022-12-03T12:39:21.332Z,8.95
2022-12-03T12:41:50.341Z,7.47
2022-12-03T12:44:18.505Z,8.10
2022-12-03T12:46:48.618Z,8.07
2022-12-03T12:49:15.526Z,8.05
2022-12-03T12:51:46.767Z,8.13
2022-12-03T12:54:15.871Z,8.50
2022-12-03T12:56:49.835Z,9.57
2022-12-03T12:59:21.975Z,9.68
2022-12-03T13:01:50.238Z,8.70
2022-12-03T13:04:20.038Z,9.27
2022-12-03T13:06:49.061Z,8.40
2022-12-03T13:09:18.595Z,8.57
2022-12-03T13:11:47.651Z,9.43
2022-12-03T13:14:25.248Z,8.98
2022-12-03T13:16:55.082Z,10.30
2022-12-03T13:19:27.188Z,10.35
2022-12-03T13:22:12.809Z,9.48
2022-12-03T13:24:43.851Z,10.80
2022-12-03T13:27:19.747Z,11.57
2022-12-03T13:29:50.790Z,11.00
2022-12-03T13:32:37.108Z,16.70
2022-12-03T13:35:09.953Z,41.92
2022-12-03T13:37:37.450Z,41.05
2022-12-03T13:40:36.031Z,47.03
2022-12-03T13:43:12.251Z,16.92
2022-12-03T13:45:41.387Z,18.98
2022-12-03T13:48:31.767Z,14.98
2022-12-03T13:51:08.421Z,13.23
2022-12-03T13:53:38.545Z,13.07
2022-12-03T13:56:27.230Z,12.10
2022-12-03T13:58:54.018Z,12.07
2022-12-03T14:01:20.712Z,16.65
2022-12-03T14:03:47.465Z,13.07
2022-12-03T14:06:14.532Z,11.55
2022-12-03T14:08:41.414Z,14.82
2022-12-03T14:11:08.191Z,12.45
2022-12-03T14:13:35.107Z,13.20
2022-12-03T14:16:01.728Z,11.45
2022-12-03T14:18:28.312Z,10.90
2022-12-03T14:20:54.846Z,10.48
2022-12-03T14:23:21.455Z,10.25
2022-12-03T14:25:48.005Z,10.40
2022-12-03T14:28:14.505Z,10.25
2022-12-03T14:30:41.074Z,10.65
2022-12-03T14:33:07.671Z,10.20
2022-12-03T14:35:34.161Z,10.10
2022-12-03T14:38:00.680Z,10.40
2022-12-03T14:40:27.591Z,9.27
2022-12-03T14:42:54.197Z,9.45
2022-12-03T14:45:21.003Z,9.25
2022-12-03T14:47:47.554Z,8.80
2022-12-03T14:50:14.690Z,8.57
2022-12-03T14:52:41.905Z,9.35
2022-12-03T14:55:08.891Z,9.68
2022-12-03T14:57:35.489Z,9.85
2022-12-03T15:00:01.952Z,9.52
2022-12-03T15:02:30.309Z,9.45
2022-12-03T15:04:56.957Z,8.75
2022-12-03T15:07:23.589Z,8.90
2022-12-03T15:09:50.140Z,10.57
2022-12-03T15:12:16.708Z,9.32
2022-12-03T15:14:43.322Z,10.25
2022-12-03T15:17:09.860Z,9.48
2022-12-03T15:19:36.413Z,10.23
2022-12-03T15:22:02.988Z,10.27
2022-12-03T15:24:29.520Z,11.43
2022-12-03T15:26:56.128Z,11.88
2022-12-03T15:29:23.341Z,12.05
2022-12-03T15:31:50.003Z,14.02
2022-12-03T15:34:22.057Z,12.48
2022-12-03T15:36:49.639Z,13.70
2022-12-03T15:39:16.128Z,12.60
2022-12-03T15:41:42.689Z,15.82
2022-12-03T15:44:09.268Z,13.35
2022-12-03T15:46:35.924Z,13.05
2022-12-03T15:49:02.639Z,12.88
2022-12-03T15:51:29.144Z,13.52
2022-12-03T15:53:55.725Z,13.55
2022-12-03T15:56:22.290Z,14.15
2022-12-03T15:58:48.749Z,13.27
2022-12-03T16:01:15.371Z,12.98
2022-12-03T16:03:42.004Z,13.05
2022-12-03T16:06:08.944Z,13.32
2022-12-03T16:08:35.586Z,13.05
2022-12-03T16:11:02.102Z,13.98
2022-12-03T16:13:28.678Z,12.40
2022-12-03T16:15:55.230Z,13.75
2022-12-03T16:18:21.749Z,13.43
2022-12-03T16:20:48.299Z,12.75
2022-12-03T16:23:14.797Z,13.40
2022-12-03T16:25:41.324Z,13.73
2022-12-03T16:28:08.377Z,14.70
2022-12-03T16:30:35.981Z,14.00
2022-12-03T16:33:02.556Z,18.30
2022-12-03T16:35:29.185Z,14.30
2022-12-03T16:37:55.655Z,15.63
2022-12-03T16:40:22.279Z,14.65
2022-12-03T16:42:48.820Z,12.52
2022-12-03T16:45:50.892Z,13.02
2022-12-03T16:48:18.770Z,13.88
2022-12-03T16:50:45.634Z,13.77
2022-12-03T16:53:12.441Z,12.57
2022-12-03T16:55:38.989Z,13.52
2022-12-03T16:58:05.544Z,14.00
2022-12-03T17:00:32.113Z,13.60
2022-12-03T17:02:58.796Z,12.50
2022-12-03T17:05:25.373Z,13.30
2022-12-03T17:07:51.998Z,13.30
2022-12-03T17:10:18.615Z,12.10
2022-12-03T17:15:32.475Z,12.55
2022-12-03T17:17:59.074Z,13.55
2022-12-03T17:20:25.701Z,12.93
2022-12-03T17:22:52.200Z,14.82
2022-12-03T17:25:18.792Z,12.85
2022-12-03T17:27:45.682Z,12.05
2022-12-03T17:30:13.053Z,13.82
2022-12-03T17:32:40.042Z,12.52
2022-12-03T17:35:07.189Z,12.73
2022-12-03T17:37:33.944Z,13.98
2022-12-03T17:40:00.512Z,13.65
2022-12-03T17:42:27.114Z,13.60
2022-12-03T17:44:53.644Z,14.02
2022-12-03T17:47:20.140Z,12.40
2022-12-03T17:49:46.611Z,12.55
2022-12-03T17:52:13.168Z,12.65
2022-12-03T17:55:02.354Z,13.30
2022-12-03T17:57:26.237Z,13.10
2022-12-03T17:59:53.020Z,12.57
2022-12-03T18:02:19.970Z,13.68
2022-12-03T18:04:46.536Z,13.57
2022-12-03T18:07:13.099Z,13.13
2022-12-03T18:09:39.631Z,12.60
2022-12-03T18:12:06.583Z,12.63
2022-12-03T18:14:33.164Z,12.50
2022-12-03T18:16:59.654Z,12.88
2022-12-03T18:19:26.359Z,12.65
2022-12-03T18:21:54.029Z,13.35
2022-12-03T18:24:21.130Z,12.77
2022-12-03T18:26:47.749Z,12.50
2022-12-03T18:29:14.370Z,17.02
2022-12-03T18:31:40.929Z,30.25
2022-12-03T18:34:07.450Z,15.15
2022-12-03T18:36:36.298Z,15.07
2022-12-03T18:39:05.986Z,12.35
2022-12-03T18:41:33.437Z,14.02
2022-12-03T18:44:03.520Z,13.82
2022-12-03T18:46:52.401Z,13.23
2022-12-03T18:49:16.762Z,11.95
2022-12-03T18:51:43.447Z,13.70
2022-12-03T18:54:13.423Z,12.40
2022-12-03T18:56:43.260Z,12.95
2022-12-03T18:59:10.344Z,12.23
2022-12-03T19:01:37.039Z,12.27
2022-12-03T19:04:03.778Z,13.40
2022-12-03T19:06:30.603Z,13.48
2022-12-03T19:08:57.553Z,14.13
2022-12-03T19:11:24.458Z,13.32
2022-12-03T19:13:51.785Z,13.30
2022-12-03T19:16:18.802Z,13.60
2022-12-03T19:18:45.357Z,13.35
2022-12-03T19:21:14.702Z,13.55
2022-12-03T19:23:47.242Z,14.48
2022-12-03T19:26:25.687Z,13.32
2022-12-03T19:28:53.862Z,14.07
2022-12-03T19:31:20.851Z,12.73
2022-12-03T19:33:47.913Z,11.85
2022-12-03T19:36:23.495Z,12.77
2022-12-03T19:38:56.731Z,12.57
2022-12-03T19:41:26.743Z,12.93
2022-12-03T19:43:55.454Z,13.25
2022-12-03T19:46:24.756Z,14.65
2022-12-03T19:48:51.747Z,12.40
2022-12-03T19:51:34.271Z,12.10
2022-12-03T19:54:06.167Z,11.48
2022-12-03T19:56:33.149Z,12.35
2022-12-03T19:58:59.963Z,12.90
2022-12-03T20:01:30.179Z,12.98
2022-12-03T20:03:58.777Z,13.32
2022-12-03T20:06:29.033Z,14.05
2022-12-03T20:09:01.569Z,13.70
2022-12-03T20:11:31.342Z,13.57
2022-12-03T20:14:00.175Z,11.93
2022-12-03T20:21:25.614Z,12.02
2022-12-03T20:23:52.240Z,11.55
2022-12-03T20:26:20.637Z,11.85
2022-12-03T20:28:50.764Z,12.90
2022-12-03T20:31:19.968Z,16.67
2022-12-03T20:33:49.142Z,14.52
2022-12-03T20:36:17.272Z,13.60
2022-12-03T20:38:44.099Z,12.88
2022-12-03T20:41:13.444Z,15.55
2022-12-03T20:43:40.112Z,27.85
2022-12-03T20:46:12.274Z,14.30
2022-12-03T20:48:39.745Z,23.05
2022-12-03T20:51:09.054Z,11.85
2022-12-03T20:53:36.491Z,12.07
2022-12-03T20:56:04.591Z,12.73
2022-12-03T20:58:32.143Z,13.20
2022-12-03T21:01:16.623Z,12.70
2022-12-03T21:03:44.327Z,12.95
2022-12-03T21:06:12.062Z,12.40
2022-12-03T21:08:41.896Z,13.07
2022-12-03T21:11:18.200Z,12.30
2022-12-03T21:13:45.914Z,12.20
2022-12-03T21:16:39.391Z,11.35
2022-12-03T21:19:08.753Z,13.05
2022-12-03T21:21:35.843Z,12.45
2022-12-03T21:24:02.417Z,12.35
2022-12-03T21:26:28.963Z,12.98
2022-12-03T21:28:55.612Z,11.50
2022-12-03T21:31:25.823Z,14.02
2022-12-03T21:33:54.413Z,12.00
2022-12-03T21:36:22.005Z,13.40
2022-12-03T21:38:48.627Z,12.57
2022-12-03T21:41:15.946Z,12.82
2022-12-03T21:43:43.821Z,12.95
2022-12-03T21:47:12.967Z,12.38
2022-12-03T21:49:01.377Z,12.48
2022-12-03T21:51:27.924Z,13.05
2022-12-03T21:53:54.395Z,12.98
2022-12-03T21:56:20.939Z,12.98
2022-12-03T21:58:47.767Z,13.65
2022-12-03T22:01:16.496Z,12.25
2022-12-03T22:06:10.519Z,13.00
2022-12-03T22:08:38.244Z,11.68
2022-12-03T22:11:14.008Z,11.90
2022-12-03T22:13:41.423Z,12.30
2022-12-03T22:16:12.175Z,12.18
2022-12-03T22:18:39.145Z,13.38
2022-12-03T22:21:07.690Z,12.63
2022-12-03T22:23:35.083Z,13.65
2022-12-03T22:26:07.572Z,12.77
2022-12-03T22:28:35.072Z,12.90
2022-12-03T22:31:08.575Z,12.80
2022-12-03T22:33:36.187Z,13.30
2022-12-03T22:36:09.705Z,12.65
2022-12-03T22:38:38.592Z,14.30
2022-12-03T22:41:09.843Z,13.23
2022-12-03T22:43:39.646Z,14.18
2022-12-03T22:46:08.948Z,13.52
2022-12-03T22:48:36.225Z,13.93
2022-12-03T22:51:02.834Z,12.35
2022-12-03T22:53:29.401Z,12.50
2022-12-03T22:55:57.584Z,12.68
2022-12-03T22:58:25.543Z,12.25
2022-12-03T23:00:52.702Z,14.02
2022-12-03T23:03:20.042Z,13.30
2022-12-03T23:05:46.667Z,13.35
2022-12-03T23:08:16.121Z,12.63
2022-12-03T23:10:45.555Z,13.65
2022-12-03T23:13:13.456Z,13.13
2022-12-03T23:15:51.715Z,14.25
2022-12-03T23:18:19.698Z,14.98
2022-12-03T23:20:50.300Z,13.55
2022-12-03T23:23:18.282Z,14.23
2022-12-03T23:25:55.609Z,14.80
2022-12-03T23:28:22.045Z,13.88
2022-12-03T23:30:48.713Z,12.75
2022-12-03T23:33:15.202Z,13.88
2022-12-03T23:35:41.694Z,14.75
2022-12-03T23:38:08.197Z,14.02
2022-12-03T23:40:35.107Z,15.13
2022-12-03T23:43:01.727Z,14.23
2022-12-03T23:45:28.285Z,13.77
2022-12-03T23:47:58.177Z,14.40
2022-12-03T23:50:25.818Z,14.75
2022-12-03T23:52:52.834Z,13.75
2022-12-03T23:55:19.546Z,13.30
2022-12-03T23:57:46.191Z,13.35
